Time,TemperatureF,DewpointF,PressureIn,WindDirection,WindDirectionDegrees,WindSpeedMPH,WindSpeedGustMPH,Humidity,HourlyPrecipIn,Conditions,Clouds,dailyrainin,SoftwareType,DateUTC
2014-04-18 00:00:00,44.4,43.6,30.05,North,-999,-999.0,-999.0,96,0.00,,,0.00,AD6XL-WX-0.2action=u,2014-04-18 07:00:00,
2014-04-18 00:05:00,44.3,43.5,30.05,North,-999,-999.0,-999.0,96,0.00,,,0.00,AD6XL-WX-0.2action=u,2014-04-18 07:05:00,
2014-04-18 00:11:00,44.2,43.5,30.05,North,-999,-999.0,-999.0,97,0.00,,,0.00,AD6XL-WX-0.2action=u,2014-04-18 07:11:00,
2014-04-18 00:16:00,44.2,43.5,30.05,North,-999,-999.0,-999.0,97,0.00,,,0.00,AD6XL-WX-0.2action=u,2014-04-18 07:16:00,
2014-04-18 00:21:00,44.2,43.5,30.05,North,-999,-999.0,-999.0,97,0.00,,,0.00,AD6XL-WX-0.2action=u,2014-04-18 07:21:00,
2014-04-18 00:26:00,44.2,43.5,30.05,North,-999,-999.0,-999.0,97,0.00,,,0.00,AD6XL-WX-0.2action=u,2014-04-18 07:26:00,
2014-04-18 00:31:00,44.1,43.4,30.06,North,-999,-999.0,-999.0,97,0.00,,,0.00,AD6XL-WX-0.2action=u,2014-04-18 07:31:00,
2014-04-18 00:36:00,44.1,43.4,30.06,North,-999,-999.0,-999.0,97,0.00,,,0.00,AD6XL-WX-0.2action=u,2014-04-18 07:36:00,
2014-04-18 00:41:00,44.1,43.4,30.06,North,-999,-999.0,-999.0,97,0.00,,,0.00,AD6XL-WX-0.2action=u,2014-04-18 07:41:00,
2014-04-18 00:46:00,44.1,43.4,30.07,North,-999,-999.0,-999.0,97,0.00,,,0.00,AD6XL-WX-0.2action=u,2014-04-18 07:46:00,
2014-04-18 00:51:00,44.1,43.5,30.07,North,-999,-999.0,-999.0,97,0.00,,,0.00,AD6XL-WX-0.2action=u,2014-04-18 07:51:00,
2014-04-18 00:56:00,44.1,43.4,30.07,North,-999,-999.0,-999.0,97,0.00,,,0.00,AD6XL-WX-0.2action=u,2014-04-18 07:56:00,
2014-04-18 01:01:00,43.9,43.2,30.07,North,-999,-999.0,-999.0,97,0.00,,,0.00,AD6XL-WX-0.2action=u,2014-04-18 08:01:00,
2014-04-18 01:06:00,44.0,43.4,30.07,North,-999,-999.0,-999.0,97,0.00,,,0.00,AD6XL-WX-0.2action=u,2014-04-18 08:06:00,
2014-04-18 01:11:00,44.0,43.6,30.08,North,-999,-999.0,-999.0,98,0.00,,,0.00,AD6XL-WX-0.2action=u,2014-04-18 08:11:00,
2014-04-18 01:16:00,43.9,43.3,30.08,North,-999,-999.0,-999.0,97,0.00,,,0.00,AD6XL-WX-0.2action=u,2014-04-18 08:16:00,
2014-04-18 01:22:00,43.8,43.1,30.08,North,-999,-999.0,-999.0,97,0.00,,,0.00,AD6XL-WX-0.2action=u,2014-04-18 08:22:00,
2014-04-18 01:27:00,43.7,43.0,30.08,North,-999,-999.0,-999.0,97,0.00,,,0.00,AD6XL-WX-0.2action=u,2014-04-18 08:27:00,
2014-04-18 01:32:00,43.7,43.0,30.08,North,-999,-999.0,-999.0,97,0.00,,,0.00,AD6XL-WX-0.2action=u,2014-04-18 08:32:00,
2014-04-18 01:37:00,43.7,43.0,30.08,North,-999,-999.0,-999.0,97,0.00,,,0.00,AD6XL-WX-0.2action=u,2014-04-18 08:37:00,
2014-04-18 01:42:00,43.6,43.0,30.08,North,-999,-999.0,-999.0,97,0.00,,,0.00,AD6XL-WX-0.2action=u,2014-04-18 08:42:00,
2014-04-18 01:47:00,43.6,43.1,30.08,North,-999,-999.0,-999.0,97,0.00,,,0.00,AD6XL-WX-0.2action=u,2014-04-18 08:47:00,
2014-04-18 01:52:00,43.8,43.5,30.08,North,-999,-999.0,-999.0,98,0.00,,,0.00,AD6XL-WX-0.2action=u,2014-04-18 08:52:00,
2014-04-18 01:57:00,43.9,43.7,30.08,North,-999,-999.0,-999.0,99,0.00,,,0.00,AD6XL-WX-0.2action=u,2014-04-18 08:57:00,
2014-04-18 02:02:00,43.8,43.5,30.08,North,-999,-999.0,-999.0,98,0.00,,,0.00,AD6XL-WX-0.2action=u,2014-04-18 09:02:00,
2014-04-18 02:07:00,43.6,43.1,30.08,North,-999,-999.0,-999.0,98,0.00,,,0.00,AD6XL-WX-0.2action=u,2014-04-18 09:07:00,
2014-04-18 02:12:00,43.5,43.0,30.09,North,-999,-999.0,-999.0,98,0.00,,,0.00,AD6XL-WX-0.2action=u,2014-04-18 09:12:00,
2014-04-18 02:17:00,43.5,43.0,30.09,North,-999,-999.0,-999.0,97,0.00,,,0.00,AD6XL-WX-0.2action=u,2014-04-18 09:17:00,
2014-04-18 02:22:00,43.5,43.1,30.09,North,-999,-999.0,-999.0,98,0.00,,,0.00,AD6XL-WX-0.2action=u,2014-04-18 09:22:00,
2014-04-18 02:27:00,43.5,43.0,30.09,North,-999,-999.0,-999.0,98,0.00,,,0.00,AD6XL-WX-0.2action=u,2014-04-18 09:27:00,
2014-04-18 02:33:00,43.2,42.4,30.09,North,-999,-999.0,-999.0,97,0.00,,,0.00,AD6XL-WX-0.2action=u,2014-04-18 09:33:00,
2014-04-18 02:38:00,42.8,41.9,30.09,North,-999,-999.0,-999.0,96,0.00,,,0.00,AD6XL-WX-0.2action=u,2014-04-18 09:38:00,
2014-04-18 02:43:00,42.5,41.6,30.08,North,-999,-999.0,-999.0,96,0.00,,,0.00,AD6XL-WX-0.2action=u,2014-04-18 09:43:00,
2014-04-18 02:48:00,42.2,41.3,30.08,North,-999,-999.0,-999.0,96,0.00,,,0.00,AD6XL-WX-0.2action=u,2014-04-18 09:48:00,
2014-04-18 02:53:00,42.0,41.3,30.09,North,-999,-999.0,-999.0,97,0.00,,,0.00,AD6XL-WX-0.2action=u,2014-04-18 09:53:00,
2014-04-18 02:58:00,41.8,41.2,30.09,North,-999,-999.0,-999.0,97,0.00,,,0.00,AD6XL-WX-0.2action=u,2014-04-18 09:58:00,
2014-04-18 03:03:00,41.7,41.1,30.08,North,-999,-999.0,-999.0,97,0.00,,,0.00,AD6XL-WX-0.2action=u,2014-04-18 10:03:00,
2014-04-18 03:08:00,41.7,41.2,30.08,North,-999,-999.0,-999.0,98,0.00,,,0.00,AD6XL-WX-0.2action=u,2014-04-18 10:08:00,
2014-04-18 03:13:00,41.7,41.2,30.08,North,-999,-999.0,-999.0,98,0.00,,,0.00,AD6XL-WX-0.2action=u,2014-04-18 10:13:00,
2014-04-18 03:18:00,41.6,41.1,30.08,North,-999,-999.0,-999.0,98,0.00,,,0.00,AD6XL-WX-0.2action=u,2014-04-18 10:18:00,
2014-04-18 03:23:00,41.5,41.2,30.09,North,-999,-999.0,-999.0,98,0.00,,,0.00,AD6XL-WX-0.2action=u,2014-04-18 10:23:00,
2014-04-18 03:28:00,41.4,41.1,30.09,North,-999,-999.0,-999.0,98,0.00,,,0.00,AD6XL-WX-0.2action=u,2014-04-18 10:28:00,
2014-04-18 03:33:00,41.2,40.8,30.09,North,-999,-999.0,-999.0,98,0.00,,,0.00,AD6XL-WX-0.2action=u,2014-04-18 10:33:00,
2014-04-18 03:38:00,41.0,40.5,30.09,North,-999,-999.0,-999.0,98,0.00,,,0.00,AD6XL-WX-0.2action=u,2014-04-18 10:38:00,
2014-04-18 03:44:00,40.7,40.2,30.09,North,-999,-999.0,-999.0,98,0.00,,,0.00,AD6XL-WX-0.2action=u,2014-04-18 10:44:00,
2014-04-18 03:49:00,40.5,40.1,30.09,North,-999,-999.0,-999.0,98,0.00,,,0.00,AD6XL-WX-0.2action=u,2014-04-18 10:49:00,
2014-04-18 03:54:00,40.4,40.1,30.09,North,-999,-999.0,-999.0,98,0.00,,,0.00,AD6XL-WX-0.2action=u,2014-04-18 10:54:00,
2014-04-18 03:59:00,40.3,40.1,30.09,North,-999,-999.0,-999.0,99,0.00,,,0.00,AD6XL-WX-0.2action=u,2014-04-18 10:59:00,
2014-04-18 04:04:00,40.2,39.9,30.09,North,-999,-999.0,-999.0,99,0.00,,,0.00,AD6XL-WX-0.2action=u,2014-04-18 11:04:00,
2014-04-18 04:09:00,40.0,39.7,30.09,North,-999,-999.0,-999.0,99,0.00,,,0.00,AD6XL-WX-0.2action=u,2014-04-18 11:09:00,
2014-04-18 04:14:00,39.9,39.7,30.09,North,-999,-999.0,-999.0,99,0.00,,,0.00,AD6XL-WX-0.2action=u,2014-04-18 11:14:00,
2014-04-18 04:19:00,39.9,39.7,30.10,North,-999,-999.0,-999.0,99,0.00,,,0.00,AD6XL-WX-0.2action=u,2014-04-18 11:19:00,
2014-04-18 04:24:00,39.8,39.6,30.10,North,-999,-999.0,-999.0,99,0.00,,,0.00,AD6XL-WX-0.2action=u,2014-04-18 11:24:00,
2014-04-18 04:29:00,39.7,39.6,30.10,North,-999,-999.0,-999.0,99,0.00,,,0.00,AD6XL-WX-0.2action=u,2014-04-18 11:29:00,
2014-04-18 04:34:00,39.7,39.6,30.10,North,-999,-999.0,-999.0,99,0.00,,,0.00,AD6XL-WX-0.2action=u,2014-04-18 11:34:00,
2014-04-18 04:39:00,39.7,39.7,30.10,North,-999,-999.0,-999.0,99,0.00,,,0.00,AD6XL-WX-0.2action=u,2014-04-18 11:39:00,
2014-04-18 04:44:00,39.7,39.7,30.10,North,-999,-999.0,-999.0,99,0.00,,,0.00,AD6XL-WX-0.2action=u,2014-04-18 11:44:00,
2014-04-18 04:50:00,39.9,39.9,30.11,North,-999,-999.0,-999.0,99,0.00,,,0.00,AD6XL-WX-0.2action=u,2014-04-18 11:50:00,
2014-04-18 04:55:00,39.9,39.9,30.11,North,-999,-999.0,-999.0,99,0.00,,,0.00,AD6XL-WX-0.2action=u,2014-04-18 11:55:00,
2014-04-18 05:00:00,39.8,39.8,30.11,North,-999,-999.0,-999.0,99,0.00,,,0.00,AD6XL-WX-0.2action=u,2014-04-18 12:00:00,
2014-04-18 05:05:00,39.6,39.5,30.11,North,-999,-999.0,-999.0,99,0.00,,,0.00,AD6XL-WX-0.2action=u,2014-04-18 12:05:00,
2014-04-18 05:10:00,39.4,39.3,30.11,North,-999,-999.0,-999.0,99,0.00,,,0.00,AD6XL-WX-0.2action=u,2014-04-18 12:10:00,
2014-04-18 05:15:00,39.3,39.3,30.11,North,-999,-999.0,-999.0,99,0.00,,,0.00,AD6XL-WX-0.2action=u,2014-04-18 12:15:00,
2014-04-18 05:20:00,39.2,39.2,30.11,North,-999,-999.0,-999.0,99,0.00,,,0.00,AD6XL-WX-0.2action=u,2014-04-18 12:20:00,
2014-04-18 05:25:00,39.1,39.1,30.11,North,-999,-999.0,-999.0,99,0.00,,,0.00,AD6XL-WX-0.2action=u,2014-04-18 12:25:00,
2014-04-18 05:30:00,39.0,39.0,30.11,North,-999,-999.0,-999.0,99,0.00,,,0.00,AD6XL-WX-0.2action=u,2014-04-18 12:30:00,
2014-04-18 05:35:00,39.0,39.0,30.11,North,-999,-999.0,-999.0,99,0.00,,,0.00,AD6XL-WX-0.2action=u,2014-04-18 12:35:00,
2014-04-18 05:40:00,39.0,39.0,30.11,North,-999,-999.0,-999.0,99,0.00,,,0.00,AD6XL-WX-0.2action=u,2014-04-18 12:40:00,
2014-04-18 05:45:00,39.1,39.1,30.11,North,-999,-999.0,-999.0,99,0.00,,,0.00,AD6XL-WX-0.2action=u,2014-04-18 12:45:00,
2014-04-18 05:50:00,39.3,39.3,30.11,North,-999,-999.0,-999.0,100,0.00,,,0.00,AD6XL-WX-0.2action=u,2014-04-18 12:50:00,
2014-04-18 05:56:00,39.5,39.5,30.11,North,-999,-999.0,-999.0,100,0.00,,,0.00,AD6XL-WX-0.2action=u,2014-04-18 12:56:00,
2014-04-18 06:01:00,39.6,39.6,30.11,North,-999,-999.0,-999.0,100,0.00,,,0.00,AD6XL-WX-0.2action=u,2014-04-18 13:01:00,
2014-04-18 06:06:00,39.6,39.6,30.11,North,-999,-999.0,-999.0,100,0.00,,,0.00,AD6XL-WX-0.2action=u,2014-04-18 13:06:00,
2014-04-18 06:11:00,39.4,39.4,30.11,North,-999,-999.0,-999.0,99,0.00,,,0.00,AD6XL-WX-0.2action=u,2014-04-18 13:11:00,
2014-04-18 06:16:00,39.2,39.1,30.11,North,-999,-999.0,-999.0,99,0.00,,,0.00,AD6XL-WX-0.2action=u,2014-04-18 13:16:00,
2014-04-18 06:21:00,39.1,38.9,30.11,North,-999,-999.0,-999.0,99,0.00,,,0.00,AD6XL-WX-0.2action=u,2014-04-18 13:21:00,
2014-04-18 06:26:00,39.2,39.2,30.11,North,-999,-999.0,-999.0,99,0.00,,,0.00,AD6XL-WX-0.2action=u,2014-04-18 13:26:00,
2014-04-18 06:31:00,39.2,39.1,30.11,North,-999,-999.0,-999.0,99,0.00,,,0.00,AD6XL-WX-0.2action=u,2014-04-18 13:31:00,
2014-04-18 06:36:00,39.0,38.7,30.11,North,-999,-999.0,-999.0,98,0.00,,,0.00,AD6XL-WX-0.2action=u,2014-04-18 13:36:00,
2014-04-18 06:41:00,39.1,38.9,30.11,North,-999,-999.0,-999.0,99,0.00,,,0.00,AD6XL-WX-0.2action=u,2014-04-18 13:41:00,
2014-04-18 06:46:00,39.3,39.2,30.12,North,-999,-999.0,-999.0,99,0.00,,,0.00,AD6XL-WX-0.2action=u,2014-04-18 13:46:00,
2014-04-18 06:51:00,39.5,39.5,30.12,North,-999,-999.0,-999.0,99,0.00,,,0.00,AD6XL-WX-0.2action=u,2014-04-18 13:51:00,
2014-04-18 06:57:00,39.8,39.8,30.12,North,-999,-999.0,-999.0,99,0.00,,,0.00,AD6XL-WX-0.2action=u,2014-04-18 13:57:00,
2014-04-18 07:02:00,40.0,39.8,30.12,North,-999,-999.0,-999.0,99,0.00,,,0.00,AD6XL-WX-0.2action=u,2014-04-18 14:02:00,
2014-04-18 07:07:00,40.2,39.9,30.12,North,-999,-999.0,-999.0,99,0.00,,,0.00,AD6XL-WX-0.2action=u,2014-04-18 14:07:00,
2014-04-18 07:12:00,40.3,40.0,30.12,North,-999,-999.0,-999.0,98,0.00,,,0.00,AD6XL-WX-0.2action=u,2014-04-18 14:12:00,
2014-04-18 07:17:00,40.4,40.1,30.12,North,-999,-999.0,-999.0,98,0.00,,,0.00,AD6XL-WX-0.2action=u,2014-04-18 14:17:00,
2014-04-18 07:22:00,40.6,40.4,30.12,North,-999,-999.0,-999.0,99,0.00,,,0.00,AD6XL-WX-0.2action=u,2014-04-18 14:22:00,
2014-04-18 07:27:00,40.9,40.8,30.13,North,-999,-999.0,-999.0,99,0.00,,,0.00,AD6XL-WX-0.2action=u,2014-04-18 14:27:00,
2014-04-18 07:32:00,41.2,41.1,30.13,North,-999,-999.0,-999.0,99,0.00,,,0.00,AD6XL-WX-0.2action=u,2014-04-18 14:32:00,
2014-04-18 07:37:00,41.4,41.2,30.13,North,-999,-999.0,-999.0,99,0.00,,,0.00,AD6XL-WX-0.2action=u,2014-04-18 14:37:00,
2014-04-18 07:42:00,41.6,41.4,30.13,North,-999,-999.0,-999.0,98,0.00,,,0.00,AD6XL-WX-0.2action=u,2014-04-18 14:42:00,
2014-04-18 07:47:00,41.8,41.4,30.13,North,-999,-999.0,-999.0,98,0.00,,,0.00,AD6XL-WX-0.2action=u,2014-04-18 14:47:00,
2014-04-18 07:52:00,42.0,41.5,30.14,North,-999,-999.0,-999.0,98,0.01,,,0.01,AD6XL-WX-0.2action=u,2014-04-18 14:52:00,
2014-04-18 07:57:00,42.1,41.6,30.14,North,-999,-999.0,-999.0,98,0.01,,,0.01,AD6XL-WX-0.2action=u,2014-04-18 14:57:00,
2014-04-18 08:02:00,42.2,41.8,30.13,North,-999,-999.0,-999.0,98,0.01,,,0.01,AD6XL-WX-0.2action=u,2014-04-18 15:02:00,
2014-04-18 08:08:00,42.4,42.0,30.13,North,-999,-999.0,-999.0,98,0.01,,,0.01,AD6XL-WX-0.2action=u,2014-04-18 15:08:00,
2014-04-18 08:13:00,42.6,42.2,30.13,North,-999,-999.0,-999.0,98,0.01,,,0.01,AD6XL-WX-0.2action=u,2014-04-18 15:13:00,
2014-04-18 08:18:00,42.7,42.4,30.13,North,-999,-999.0,-999.0,98,0.01,,,0.01,AD6XL-WX-0.2action=u,2014-04-18 15:18:00,
2014-04-18 08:23:00,43.0,42.7,30.13,North,-999,-999.0,-999.0,98,0.01,,,0.01,AD6XL-WX-0.2action=u,2014-04-18 15:23:00,
2014-04-18 08:28:00,43.3,43.0,30.13,North,-999,-999.0,-999.0,99,0.01,,,0.01,AD6XL-WX-0.2action=u,2014-04-18 15:28:00,
2014-04-18 08:33:00,43.6,43.3,30.13,North,-999,-999.0,-999.0,99,0.01,,,0.01,AD6XL-WX-0.2action=u,2014-04-18 15:33:00,
2014-04-18 08:38:00,43.9,43.6,30.12,North,-999,-999.0,-999.0,98,0.02,,,0.02,AD6XL-WX-0.2action=u,2014-04-18 15:38:00,
2014-04-18 08:43:00,44.3,43.8,30.12,North,-999,-999.0,-999.0,98,0.02,,,0.02,AD6XL-WX-0.2action=u,2014-04-18 15:43:00,
2014-04-18 08:48:00,44.6,44.1,30.12,North,-999,-999.0,-999.0,98,0.01,,,0.02,AD6XL-WX-0.2action=u,2014-04-18 15:48:00,
2014-04-18 08:53:00,44.8,44.2,30.12,North,-999,-999.0,-999.0,97,0.01,,,0.02,AD6XL-WX-0.2action=u,2014-04-18 15:53:00,
2014-04-18 08:58:00,45.0,44.2,30.12,North,-999,-999.0,-999.0,96,0.01,,,0.02,AD6XL-WX-0.2action=u,2014-04-18 15:58:00,
2014-04-18 09:03:00,45.2,44.3,30.12,North,-999,-999.0,-999.0,96,0.01,,,0.02,AD6XL-WX-0.2action=u,2014-04-18 16:03:00,
2014-04-18 09:08:00,45.3,44.4,30.12,North,-999,-999.0,-999.0,96,0.01,,,0.02,AD6XL-WX-0.2action=u,2014-04-18 16:08:00,
2014-04-18 09:13:00,45.8,44.9,30.12,North,-999,-999.0,-999.0,96,0.01,,,0.02,AD6XL-WX-0.2action=u,2014-04-18 16:13:00,
2014-04-18 09:19:00,46.1,45.0,30.12,North,-999,-999.0,-999.0,95,0.02,,,0.03,AD6XL-WX-0.2action=u,2014-04-18 16:19:00,
2014-04-18 09:24:00,46.4,45.1,30.12,North,-999,-999.0,-999.0,94,0.02,,,0.03,AD6XL-WX-0.2action=u,2014-04-18 16:24:00,
2014-04-18 09:29:00,46.6,45.1,30.12,North,-999,-999.0,-999.0,94,0.02,,,0.03,AD6XL-WX-0.2action=u,2014-04-18 16:29:00,
2014-04-18 09:34:00,46.8,45.3,30.12,North,-999,-999.0,-999.0,94,0.02,,,0.03,AD6XL-WX-0.2action=u,2014-04-18 16:34:00,
2014-04-18 09:39:00,46.9,45.4,30.12,North,-999,-999.0,-999.0,94,0.01,,,0.03,AD6XL-WX-0.2action=u,2014-04-18 16:39:00,
2014-04-18 09:44:00,46.9,45.3,30.12,North,-999,-999.0,-999.0,94,0.01,,,0.03,AD6XL-WX-0.2action=u,2014-04-18 16:44:00,
2014-04-18 09:49:00,46.9,45.3,30.12,North,-999,-999.0,-999.0,93,0.02,,,0.04,AD6XL-WX-0.2action=u,2014-04-18 16:49:00,
2014-04-18 09:54:00,47.1,45.5,30.12,North,-999,-999.0,-999.0,94,0.02,,,0.04,AD6XL-WX-0.2action=u,2014-04-18 16:54:00,
2014-04-18 09:59:00,47.3,45.6,30.12,North,-999,-999.0,-999.0,93,0.02,,,0.04,AD6XL-WX-0.2action=u,2014-04-18 16:59:00,
2014-04-18 10:04:00,47.6,45.8,30.12,North,-999,-999.0,-999.0,93,0.02,,,0.04,AD6XL-WX-0.2action=u,2014-04-18 17:04:00,
2014-04-18 10:09:00,47.9,45.9,30.12,North,-999,-999.0,-999.0,93,0.02,,,0.04,AD6XL-WX-0.2action=u,2014-04-18 17:09:00,
2014-04-18 10:14:00,48.1,46.1,30.12,North,-999,-999.0,-999.0,92,0.02,,,0.04,AD6XL-WX-0.2action=u,2014-04-18 17:14:00,
2014-04-18 10:19:00,48.4,46.4,30.12,North,-999,-999.0,-999.0,92,0.01,,,0.04,AD6XL-WX-0.2action=u,2014-04-18 17:19:00,
2014-04-18 10:24:00,48.6,46.0,30.13,North,-999,-999.0,-999.0,90,0.01,,,0.04,AD6XL-WX-0.2action=u,2014-04-18 17:24:00,
2014-04-18 10:30:00,48.8,45.9,30.13,North,-999,-999.0,-999.0,89,0.01,,,0.04,AD6XL-WX-0.2action=u,2014-04-18 17:30:00,
2014-04-18 10:35:00,49.0,46.2,30.13,North,-999,-999.0,-999.0,89,0.01,,,0.04,AD6XL-WX-0.2action=u,2014-04-18 17:35:00,
2014-04-18 10:40:00,49.3,45.9,30.13,North,-999,-999.0,-999.0,87,0.01,,,0.04,AD6XL-WX-0.2action=u,2014-04-18 17:40:00,
2014-04-18 10:45:00,49.5,45.1,30.13,North,-999,-999.0,-999.0,84,0.01,,,0.04,AD6XL-WX-0.2action=u,2014-04-18 17:45:00,
2014-04-18 10:50:00,49.9,45.8,30.13,North,-999,-999.0,-999.0,85,0.00,,,0.04,AD6XL-WX-0.2action=u,2014-04-18 17:50:00,
2014-04-18 10:55:00,50.2,46.0,30.13,North,-999,-999.0,-999.0,85,0.00,,,0.04,AD6XL-WX-0.2action=u,2014-04-18 17:55:00,
2014-04-18 11:00:00,50.3,45.6,30.13,North,-999,-999.0,-999.0,83,0.01,,,0.05,AD6XL-WX-0.2action=u,2014-04-18 18:00:00,
2014-04-18 11:05:00,50.5,45.5,30.13,North,-999,-999.0,-999.0,82,0.01,,,0.05,AD6XL-WX-0.2action=u,2014-04-18 18:05:00,
2014-04-18 11:10:00,50.6,45.3,30.13,North,-999,-999.0,-999.0,81,0.01,,,0.05,AD6XL-WX-0.2action=u,2014-04-18 18:10:00,
2014-04-18 11:16:00,50.9,45.3,30.13,North,-999,-999.0,-999.0,80,0.01,,,0.05,AD6XL-WX-0.2action=u,2014-04-18 18:16:00,
2014-04-18 11:21:00,51.1,43.9,30.13,North,-999,-999.0,-999.0,76,0.01,,,0.05,AD6XL-WX-0.2action=u,2014-04-18 18:21:00,
2014-04-18 11:26:00,51.3,43.0,30.13,North,-999,-999.0,-999.0,73,0.01,,,0.05,AD6XL-WX-0.2action=u,2014-04-18 18:26:00,
2014-04-18 11:31:00,51.5,43.4,30.13,North,-999,-999.0,-999.0,73,0.01,,,0.05,AD6XL-WX-0.2action=u,2014-04-18 18:31:00,
2014-04-18 11:36:00,51.8,41.7,30.13,North,-999,-999.0,-999.0,68,0.01,,,0.05,AD6XL-WX-0.2action=u,2014-04-18 18:36:00,
2014-04-18 11:41:00,52.1,41.2,30.13,North,-999,-999.0,-999.0,66,0.01,,,0.05,AD6XL-WX-0.2action=u,2014-04-18 18:41:00,
2014-04-18 11:46:00,52.4,41.4,30.13,North,-999,-999.0,-999.0,66,0.01,,,0.05,AD6XL-WX-0.2action=u,2014-04-18 18:46:00,
2014-04-18 11:51:00,52.5,41.5,30.13,North,-999,-999.0,-999.0,65,0.01,,,0.05,AD6XL-WX-0.2action=u,2014-04-18 18:51:00,
2014-04-18 11:56:00,52.6,41.7,30.12,North,-999,-999.0,-999.0,66,0.01,,,0.05,AD6XL-WX-0.2action=u,2014-04-18 18:56:00,
2014-04-18 12:01:00,52.9,41.7,30.12,North,-999,-999.0,-999.0,65,0.00,,,0.05,AD6XL-WX-0.2action=u,2014-04-18 19:01:00,
2014-04-18 12:06:00,53.0,41.5,30.12,North,-999,-999.0,-999.0,64,0.00,,,0.05,AD6XL-WX-0.2action=u,2014-04-18 19:06:00,
2014-04-18 12:12:00,53.2,40.9,30.12,North,-999,-999.0,-999.0,62,0.00,,,0.05,AD6XL-WX-0.2action=u,2014-04-18 19:12:00,
2014-04-18 12:17:00,53.4,40.2,30.12,North,-999,-999.0,-999.0,60,0.00,,,0.05,AD6XL-WX-0.2action=u,2014-04-18 19:17:00,
2014-04-18 12:22:00,53.7,41.1,30.12,North,-999,-999.0,-999.0,62,0.00,,,0.05,AD6XL-WX-0.2action=u,2014-04-18 19:22:00,
2014-04-18 12:27:00,54.0,41.0,30.11,North,-999,-999.0,-999.0,61,0.00,,,0.05,AD6XL-WX-0.2action=u,2014-04-18 19:27:00,
2014-04-18 12:32:00,54.4,40.2,30.11,North,-999,-999.0,-999.0,58,0.00,,,0.05,AD6XL-WX-0.2action=u,2014-04-18 19:32:00,
2014-04-18 12:37:00,54.7,40.2,30.11,North,-999,-999.0,-999.0,57,0.00,,,0.05,AD6XL-WX-0.2action=u,2014-04-18 19:37:00,
2014-04-18 12:42:00,55.0,41.0,30.11,North,-999,-999.0,-999.0,59,0.00,,,0.05,AD6XL-WX-0.2action=u,2014-04-18 19:42:00,
2014-04-18 12:47:00,55.2,41.3,30.11,North,-999,-999.0,-999.0,59,0.00,,,0.05,AD6XL-WX-0.2action=u,2014-04-18 19:47:00,
2014-04-18 12:52:00,55.4,40.7,30.11,North,-999,-999.0,-999.0,57,0.00,,,0.05,AD6XL-WX-0.2action=u,2014-04-18 19:52:00,
2014-04-18 12:57:00,55.7,39.8,30.11,North,-999,-999.0,-999.0,54,0.00,,,0.05,AD6XL-WX-0.2action=u,2014-04-18 19:57:00,
2014-04-18 13:03:00,56.0,39.6,30.10,North,-999,-999.0,-999.0,53,0.00,,,0.05,AD6XL-WX-0.2action=u,2014-04-18 20:03:00,
2014-04-18 13:08:00,56.3,39.9,30.10,North,-999,-999.0,-999.0,54,0.00,,,0.05,AD6XL-WX-0.2action=u,2014-04-18 20:08:00,
2014-04-18 13:13:00,56.4,40.5,30.09,North,-999,-999.0,-999.0,55,0.00,,,0.05,AD6XL-WX-0.2action=u,2014-04-18 20:13:00,
2014-04-18 13:18:00,56.8,40.8,30.09,North,-999,-999.0,-999.0,54,0.00,,,0.05,AD6XL-WX-0.2action=u,2014-04-18 20:18:00,
2014-04-18 13:23:00,57.1,40.0,30.09,North,-999,-999.0,-999.0,52,0.00,,,0.05,AD6XL-WX-0.2action=u,2014-04-18 20:23:00,
2014-04-18 13:28:00,57.4,39.7,30.08,North,-999,-999.0,-999.0,51,0.00,,,0.05,AD6XL-WX-0.2action=u,2014-04-18 20:28:00,
2014-04-18 13:33:00,57.8,39.9,30.08,North,-999,-999.0,-999.0,51,0.00,,,0.05,AD6XL-WX-0.2action=u,2014-04-18 20:33:00,
2014-04-18 13:38:00,58.0,38.9,30.08,North,-999,-999.0,-999.0,48,0.00,,,0.05,AD6XL-WX-0.2action=u,2014-04-18 20:38:00,
2014-04-18 13:43:00,58.1,38.6,30.08,North,-999,-999.0,-999.0,48,0.00,,,0.05,AD6XL-WX-0.2action=u,2014-04-18 20:43:00,
2014-04-18 13:48:00,58.3,38.2,30.08,North,-999,-999.0,-999.0,47,0.00,,,0.05,AD6XL-WX-0.2action=u,2014-04-18 20:48:00,
2014-04-18 13:54:00,58.5,39.2,30.07,North,-999,-999.0,-999.0,48,0.00,,,0.05,AD6XL-WX-0.2action=u,2014-04-18 20:54:00,
2014-04-18 13:59:00,58.8,39.8,30.07,North,-999,-999.0,-999.0,49,0.00,,,0.05,AD6XL-WX-0.2action=u,2014-04-18 20:59:00,
2014-04-18 14:04:00,59.0,39.7,30.06,North,-999,-999.0,-999.0,48,0.00,,,0.05,AD6XL-WX-0.2action=u,2014-04-18 21:04:00,
2014-04-18 14:09:00,58.9,39.2,30.06,North,-999,-999.0,-999.0,47,0.00,,,0.05,AD6XL-WX-0.2action=u,2014-04-18 21:09:00,
2014-04-18 14:14:00,59.1,39.5,30.06,North,-999,-999.0,-999.0,48,0.00,,,0.05,AD6XL-WX-0.2action=u,2014-04-18 21:14:00,
2014-04-18 14:19:00,59.2,38.6,30.05,North,-999,-999.0,-999.0,46,0.00,,,0.05,AD6XL-WX-0.2action=u,2014-04-18 21:19:00,
2014-04-18 14:24:00,59.6,39.5,30.05,North,-999,-999.0,-999.0,47,0.00,,,0.05,AD6XL-WX-0.2action=u,2014-04-18 21:24:00,
2014-04-18 14:29:00,59.9,39.6,30.05,North,-999,-999.0,-999.0,46,0.00,,,0.05,AD6XL-WX-0.2action=u,2014-04-18 21:29:00,
2014-04-18 14:34:00,60.1,38.5,30.05,North,-999,-999.0,-999.0,44,0.00,,,0.05,AD6XL-WX-0.2action=u,2014-04-18 21:34:00,
2014-04-18 14:39:00,60.5,37.2,30.05,North,-999,-999.0,-999.0,41,0.00,,,0.05,AD6XL-WX-0.2action=u,2014-04-18 21:39:00,
2014-04-18 14:44:00,60.6,37.1,30.05,North,-999,-999.0,-999.0,41,0.00,,,0.05,AD6XL-WX-0.2action=u,2014-04-18 21:44:00,
2014-04-18 14:50:00,60.5,38.0,30.05,North,-999,-999.0,-999.0,43,0.00,,,0.05,AD6XL-WX-0.2action=u,2014-04-18 21:50:00,
2014-04-18 14:55:00,60.6,38.6,30.05,North,-999,-999.0,-999.0,44,0.00,,,0.05,AD6XL-WX-0.2action=u,2014-04-18 21:55:00,
2014-04-18 15:00:00,60.8,39.2,30.05,North,-999,-999.0,-999.0,44,0.00,,,0.05,AD6XL-WX-0.2action=u,2014-04-18 22:00:00,
2014-04-18 15:05:00,61.0,38.6,30.04,North,-999,-999.0,-999.0,43,0.00,,,0.05,AD6XL-WX-0.2action=u,2014-04-18 22:05:00,
2014-04-18 15:10:00,61.0,37.7,30.04,North,-999,-999.0,-999.0,41,0.00,,,0.05,AD6XL-WX-0.2action=u,2014-04-18 22:10:00,
2014-04-18 15:15:00,61.2,37.7,30.03,North,-999,-999.0,-999.0,41,0.00,,,0.05,AD6XL-WX-0.2action=u,2014-04-18 22:15:00,
2014-04-18 15:20:00,61.3,36.9,30.03,North,-999,-999.0,-999.0,40,0.00,,,0.05,AD6XL-WX-0.2action=u,2014-04-18 22:20:00,
2014-04-18 15:25:00,61.5,35.7,30.03,North,-999,-999.0,-999.0,38,0.00,,,0.05,AD6XL-WX-0.2action=u,2014-04-18 22:25:00,
2014-04-18 15:30:00,61.7,35.3,30.03,North,-999,-999.0,-999.0,37,0.00,,,0.05,AD6XL-WX-0.2action=u,2014-04-18 22:30:00,
2014-04-18 15:35:00,62.0,34.8,30.03,North,-999,-999.0,-999.0,36,0.00,,,0.05,AD6XL-WX-0.2action=u,2014-04-18 22:35:00,
2014-04-18 15:41:00,62.3,34.9,30.02,North,-999,-999.0,-999.0,35,0.00,,,0.05,AD6XL-WX-0.2action=u,2014-04-18 22:41:00,
2014-04-18 15:46:00,62.3,34.6,30.02,North,-999,-999.0,-999.0,35,0.00,,,0.05,AD6XL-WX-0.2action=u,2014-04-18 22:46:00,
2014-04-18 15:51:00,62.5,34.7,30.02,North,-999,-999.0,-999.0,35,0.00,,,0.05,AD6XL-WX-0.2action=u,2014-04-18 22:51:00,
2014-04-18 15:56:00,62.7,36.1,30.02,North,-999,-999.0,-999.0,37,0.00,,,0.05,AD6XL-WX-0.2action=u,2014-04-18 22:56:00,
2014-04-18 16:01:00,62.8,37.6,30.01,North,-999,-999.0,-999.0,39,0.00,,,0.05,AD6XL-WX-0.2action=u,2014-04-18 23:01:00,
2014-04-18 16:06:00,63.0,38.3,30.01,North,-999,-999.0,-999.0,39,0.00,,,0.05,AD6XL-WX-0.2action=u,2014-04-18 23:06:00,
2014-04-18 16:11:00,62.9,38.0,30.01,North,-999,-999.0,-999.0,39,0.00,,,0.05,AD6XL-WX-0.2action=u,2014-04-18 23:11:00,
2014-04-18 16:16:00,62.7,38.3,30.01,North,-999,-999.0,-999.0,40,0.00,,,0.05,AD6XL-WX-0.2action=u,2014-04-18 23:16:00,
2014-04-18 16:21:00,62.4,38.3,30.00,North,-999,-999.0,-999.0,40,0.00,,,0.05,AD6XL-WX-0.2action=u,2014-04-18 23:21:00,
2014-04-18 16:26:00,62.2,38.6,30.00,North,-999,-999.0,-999.0,41,0.00,,,0.05,AD6XL-WX-0.2action=u,2014-04-18 23:26:00,
2014-04-18 16:32:00,62.1,38.5,30.00,North,-999,-999.0,-999.0,41,0.00,,,0.05,AD6XL-WX-0.2action=u,2014-04-18 23:32:00,
2014-04-18 16:37:00,62.2,38.5,29.99,North,-999,-999.0,-999.0,41,0.00,,,0.05,AD6XL-WX-0.2action=u,2014-04-18 23:37:00,
2014-04-18 16:42:00,62.1,38.0,29.99,North,-999,-999.0,-999.0,40,0.00,,,0.05,AD6XL-WX-0.2action=u,2014-04-18 23:42:00,
2014-04-18 16:47:00,62.1,37.2,29.99,North,-999,-999.0,-999.0,39,0.00,,,0.05,AD6XL-WX-0.2action=u,2014-04-18 23:47:00,
2014-04-18 16:52:00,62.0,37.6,29.99,North,-999,-999.0,-999.0,40,0.00,,,0.05,AD6XL-WX-0.2action=u,2014-04-18 23:52:00,
2014-04-18 16:57:00,61.9,37.7,29.99,North,-999,-999.0,-999.0,40,0.00,,,0.05,AD6XL-WX-0.2action=u,2014-04-18 23:57:00,
2014-04-18 17:02:00,61.7,37.4,29.98,North,-999,-999.0,-999.0,40,0.00,,,0.05,AD6XL-WX-0.2action=u,2014-04-19 00:02:00,
2014-04-18 17:07:00,61.8,37.2,29.98,North,-999,-999.0,-999.0,39,0.00,,,0.05,AD6XL-WX-0.2action=u,2014-04-19 00:07:00,
2014-04-18 17:12:00,61.9,36.7,29.98,North,-999,-999.0,-999.0,39,0.00,,,0.05,AD6XL-WX-0.2action=u,2014-04-19 00:12:00,
2014-04-18 17:17:00,61.9,36.8,29.98,North,-999,-999.0,-999.0,39,0.00,,,0.05,AD6XL-WX-0.2action=u,2014-04-19 00:17:00,
2014-04-18 17:22:00,61.9,37.4,29.98,North,-999,-999.0,-999.0,40,0.00,,,0.05,AD6XL-WX-0.2action=u,2014-04-19 00:22:00,
2014-04-18 17:28:00,61.9,37.8,29.98,North,-999,-999.0,-999.0,40,0.00,,,0.05,AD6XL-WX-0.2action=u,2014-04-19 00:28:00,
2014-04-18 17:33:00,62.0,38.0,29.98,North,-999,-999.0,-999.0,41,0.00,,,0.05,AD6XL-WX-0.2action=u,2014-04-19 00:33:00,
2014-04-18 17:38:00,61.9,37.8,29.97,North,-999,-999.0,-999.0,40,0.00,,,0.05,AD6XL-WX-0.2action=u,2014-04-19 00:38:00,
2014-04-18 17:43:00,61.7,37.8,29.97,North,-999,-999.0,-999.0,41,0.00,,,0.05,AD6XL-WX-0.2action=u,2014-04-19 00:43:00,
2014-04-18 17:48:00,61.4,37.8,29.97,North,-999,-999.0,-999.0,41,0.00,,,0.05,AD6XL-WX-0.2action=u,2014-04-19 00:48:00,
2014-04-18 17:53:00,61.5,37.8,29.97,North,-999,-999.0,-999.0,41,0.00,,,0.05,AD6XL-WX-0.2action=u,2014-04-19 00:53:00,
2014-04-18 17:58:00,61.5,38.2,29.96,North,-999,-999.0,-999.0,42,0.00,,,0.05,AD6XL-WX-0.2action=u,2014-04-19 00:58:00,
2014-04-18 18:03:00,61.2,38.7,29.96,North,-999,-999.0,-999.0,43,0.00,,,0.05,AD6XL-WX-0.2action=u,2014-04-19 01:03:00,
2014-04-18 18:08:00,61.0,39.1,29.96,North,-999,-999.0,-999.0,44,0.00,,,0.05,AD6XL-WX-0.2action=u,2014-04-19 01:08:00,
2014-04-18 18:13:00,60.7,38.9,29.95,North,-999,-999.0,-999.0,44,0.00,,,0.05,AD6XL-WX-0.2action=u,2014-04-19 01:13:00,
2014-04-18 18:19:00,60.5,38.9,29.95,North,-999,-999.0,-999.0,44,0.00,,,0.05,AD6XL-WX-0.2action=u,2014-04-19 01:19:00,
2014-04-18 18:24:00,60.4,39.2,29.95,North,-999,-999.0,-999.0,45,0.00,,,0.05,AD6XL-WX-0.2action=u,2014-04-19 01:24:00,
2014-04-18 18:29:00,60.4,38.9,29.95,North,-999,-999.0,-999.0,44,0.00,,,0.05,AD6XL-WX-0.2action=u,2014-04-19 01:29:00,
2014-04-18 18:34:00,60.3,38.8,29.95,North,-999,-999.0,-999.0,44,0.00,,,0.05,AD6XL-WX-0.2action=u,2014-04-19 01:34:00,
2014-04-18 18:39:00,59.9,38.7,29.95,North,-999,-999.0,-999.0,45,0.00,,,0.05,AD6XL-WX-0.2action=u,2014-04-19 01:39:00,
2014-04-18 18:44:00,59.7,38.4,29.95,North,-999,-999.0,-999.0,45,0.00,,,0.05,AD6XL-WX-0.2action=u,2014-04-19 01:44:00,
2014-04-18 18:49:00,59.5,38.5,29.94,North,-999,-999.0,-999.0,45,0.00,,,0.05,AD6XL-WX-0.2action=u,2014-04-19 01:49:00,
2014-04-18 18:54:00,59.2,38.8,29.94,North,-999,-999.0,-999.0,46,0.00,,,0.05,AD6XL-WX-0.2action=u,2014-04-19 01:54:00,
2014-04-18 18:59:00,59.1,39.0,29.94,North,-999,-999.0,-999.0,47,0.00,,,0.05,AD6XL-WX-0.2action=u,2014-04-19 01:59:00,
2014-04-18 19:04:00,59.0,39.2,29.94,North,-999,-999.0,-999.0,47,0.00,,,0.05,AD6XL-WX-0.2action=u,2014-04-19 02:04:00,
2014-04-18 19:09:00,59.0,39.5,29.94,North,-999,-999.0,-999.0,48,0.00,,,0.05,AD6XL-WX-0.2action=u,2014-04-19 02:09:00,
2014-04-18 19:15:00,58.8,39.8,29.94,North,-999,-999.0,-999.0,49,0.00,,,0.05,AD6XL-WX-0.2action=u,2014-04-19 02:15:00,
2014-04-18 19:20:00,58.8,40.1,29.94,North,-999,-999.0,-999.0,49,0.00,,,0.05,AD6XL-WX-0.2action=u,2014-04-19 02:20:00,
2014-04-18 19:25:00,58.6,40.4,29.93,North,-999,-999.0,-999.0,50,0.00,,,0.05,AD6XL-WX-0.2action=u,2014-04-19 02:25:00,
2014-04-18 19:30:00,58.4,40.9,29.93,North,-999,-999.0,-999.0,52,0.00,,,0.05,AD6XL-WX-0.2action=u,2014-04-19 02:30:00,
2014-04-18 19:35:00,58.0,41.1,29.93,North,-999,-999.0,-999.0,53,0.00,,,0.05,AD6XL-WX-0.2action=u,2014-04-19 02:35:00,
2014-04-18 19:40:00,57.7,41.2,29.93,North,-999,-999.0,-999.0,54,0.00,,,0.05,AD6XL-WX-0.2action=u,2014-04-19 02:40:00,
2014-04-18 19:45:00,57.4,41.2,29.93,North,-999,-999.0,-999.0,54,0.00,,,0.05,AD6XL-WX-0.2action=u,2014-04-19 02:45:00,
2014-04-18 19:50:00,57.0,41.5,29.93,North,-999,-999.0,-999.0,56,0.00,,,0.05,AD6XL-WX-0.2action=u,2014-04-19 02:50:00,
2014-04-18 19:55:00,56.6,41.3,29.93,North,-999,-999.0,-999.0,56,0.00,,,0.05,AD6XL-WX-0.2action=u,2014-04-19 02:55:00,
2014-04-18 20:00:00,56.2,41.5,29.93,North,-999,-999.0,-999.0,57,0.00,,,0.05,AD6XL-WX-0.2action=u,2014-04-19 03:00:00,
2014-04-18 20:05:00,55.7,42.1,29.92,North,-999,-999.0,-999.0,60,0.00,,,0.05,AD6XL-WX-0.2action=u,2014-04-19 03:05:00,
2014-04-18 20:10:00,55.1,41.9,29.92,North,-999,-999.0,-999.0,61,0.00,,,0.05,AD6XL-WX-0.2action=u,2014-04-19 03:10:00,
2014-04-18 20:16:00,54.6,42.0,29.92,North,-999,-999.0,-999.0,62,0.00,,,0.05,AD6XL-WX-0.2action=u,2014-04-19 03:16:00,
2014-04-18 20:21:00,54.2,41.8,29.92,North,-999,-999.0,-999.0,62,0.00,,,0.05,AD6XL-WX-0.2action=u,2014-04-19 03:21:00,
2014-04-18 20:26:00,53.9,41.9,29.92,North,-999,-999.0,-999.0,63,0.00,,,0.05,AD6XL-WX-0.2action=u,2014-04-19 03:26:00,
2014-04-18 20:31:00,53.4,41.9,29.92,North,-999,-999.0,-999.0,64,0.00,,,0.05,AD6XL-WX-0.2action=u,2014-04-19 03:31:00,
2014-04-18 20:36:00,53.2,41.6,29.91,North,-999,-999.0,-999.0,64,0.00,,,0.05,AD6XL-WX-0.2action=u,2014-04-19 03:36:00,
2014-04-18 20:41:00,53.0,41.6,29.91,North,-999,-999.0,-999.0,65,0.00,,,0.05,AD6XL-WX-0.2action=u,2014-04-19 03:41:00,
2014-04-18 20:46:00,52.8,41.6,29.91,North,-999,-999.0,-999.0,65,0.01,,,0.06,AD6XL-WX-0.2action=u,2014-04-19 03:46:00,
2014-04-18 20:51:00,52.6,41.4,29.91,North,-999,-999.0,-999.0,65,0.01,,,0.06,AD6XL-WX-0.2action=u,2014-04-19 03:51:00,
2014-04-18 20:56:00,52.5,41.1,29.91,North,-999,-999.0,-999.0,65,0.01,,,0.06,AD6XL-WX-0.2action=u,2014-04-19 03:56:00,
2014-04-18 21:01:00,52.3,41.4,29.92,North,-999,-999.0,-999.0,66,0.01,,,0.06,AD6XL-WX-0.2action=u,2014-04-19 04:01:00,
2014-04-18 21:02:00,52.2,41.5,29.91,North,-999,-999.0,-999.0,66,0.01,,,0.06,AD6XL-WX-0.2action=u,2014-04-19 04:02:00,
2014-04-18 21:03:00,52.1,41.5,29.91,North,-999,-999.0,-999.0,66,0.01,,,0.06,AD6XL-WX-0.2action=u,2014-04-19 04:03:00,
2014-04-18 21:08:00,52.0,41.5,29.91,North,-999,-999.0,-999.0,67,0.01,,,0.06,AD6XL-WX-0.2action=u,2014-04-19 04:08:00,
2014-04-18 21:13:00,52.0,41.4,29.91,North,-999,-999.0,-999.0,67,0.01,,,0.06,AD6XL-WX-0.2action=u,2014-04-19 04:13:00,
2014-04-18 21:18:00,52.2,41.4,29.91,North,-999,-999.0,-999.0,66,0.01,,,0.06,AD6XL-WX-0.2action=u,2014-04-19 04:18:00,
2014-04-18 21:23:00,52.3,41.6,29.91,North,-999,-999.0,-999.0,66,0.01,,,0.06,AD6XL-WX-0.2action=u,2014-04-19 04:23:00,
2014-04-18 21:28:00,52.3,41.8,29.91,North,-999,-999.0,-999.0,67,0.01,,,0.06,AD6XL-WX-0.2action=u,2014-04-19 04:28:00,
2014-04-18 21:33:00,52.3,41.8,29.91,North,-999,-999.0,-999.0,67,0.01,,,0.06,AD6XL-WX-0.2action=u,2014-04-19 04:33:00,
2014-04-18 21:38:00,52.2,41.8,29.90,North,-999,-999.0,-999.0,67,0.01,,,0.06,AD6XL-WX-0.2action=u,2014-04-19 04:38:00,
2014-04-18 21:43:00,52.2,41.6,29.90,North,-999,-999.0,-999.0,67,0.01,,,0.06,AD6XL-WX-0.2action=u,2014-04-19 04:43:00,
2014-04-18 21:48:00,52.2,41.6,29.90,North,-999,-999.0,-999.0,67,0.00,,,0.06,AD6XL-WX-0.2action=u,2014-04-19 04:48:00,
2014-04-18 21:53:00,52.1,41.6,29.90,North,-999,-999.0,-999.0,67,0.00,,,0.06,AD6XL-WX-0.2action=u,2014-04-19 04:53:00,
2014-04-18 21:58:00,52.1,41.4,29.90,North,-999,-999.0,-999.0,66,0.00,,,0.06,AD6XL-WX-0.2action=u,2014-04-19 04:58:00,
2014-04-18 22:04:00,52.0,41.4,29.89,North,-999,-999.0,-999.0,67,0.00,,,0.06,AD6XL-WX-0.2action=u,2014-04-19 05:04:00,
2014-04-18 22:09:00,51.9,41.5,29.89,North,-999,-999.0,-999.0,67,0.00,,,0.06,AD6XL-WX-0.2action=u,2014-04-19 05:09:00,
2014-04-18 22:14:00,51.8,41.3,29.89,North,-999,-999.0,-999.0,67,0.00,,,0.06,AD6XL-WX-0.2action=u,2014-04-19 05:14:00,
2014-04-18 22:19:00,51.6,41.3,29.89,North,-999,-999.0,-999.0,67,0.00,,,0.06,AD6XL-WX-0.2action=u,2014-04-19 05:19:00,
2014-04-18 22:24:00,51.5,41.3,29.89,North,-999,-999.0,-999.0,67,0.00,,,0.06,AD6XL-WX-0.2action=u,2014-04-19 05:24:00,
2014-04-18 22:29:00,51.4,41.3,29.89,North,-999,-999.0,-999.0,68,0.00,,,0.06,AD6XL-WX-0.2action=u,2014-04-19 05:29:00,
2014-04-18 22:34:00,51.3,41.2,29.89,North,-999,-999.0,-999.0,68,0.00,,,0.06,AD6XL-WX-0.2action=u,2014-04-19 05:34:00,
2014-04-18 22:38:00,51.2,41.1,29.89,North,-999,-999.0,-999.0,68,0.00,,,0.06,AD6XL-WX-0.2action=u,2014-04-19 05:38:00,
2014-04-18 22:43:00,51.1,41.1,29.88,North,-999,-999.0,-999.0,68,0.00,,,0.06,AD6XL-WX-0.2action=u,2014-04-19 05:43:00,
2014-04-18 22:48:00,51.0,41.1,29.88,North,-999,-999.0,-999.0,68,0.00,,,0.06,AD6XL-WX-0.2action=u,2014-04-19 05:48:00,